Airport Name : South Bend Rgnl

Other Name : South Bend Rgnl

ICAO : KSBN

IATA : SBN

FAA : SBN

Latitude : 41.708661

Longitude : -86.31725

Country : United States

Local Date and Time : 10 Aug 2020 18:36

 

TAF (Terminal Aerodrome Forecast)

KSBN 102155Z 1022/1118 21009KT P6SM SCT020 BKN040 TEMPO 1022/1024 30045G60KT 4SM TSRA BKN020CB FM110000 30025G45KT 6SM -SHRA VCTS BKN040CB OVC100 FM110200 VRB03KT P6SM BKN150 FM111200 34005KT P6SM BKN035

 

METAR (METeorological Aerodrome Report)

KSBN 102226Z 28029G41KT 1SM R27L/5000VP6000FT TSRA OVC002 29/24 A2994 RMK AO2 LTG DSNT ALQDS RAB26 TSB22 T02890239 PNO $

KSBN 102154Z 20011KT 10SM FEW025 29/23 A2988 RMK AO2 LTG DSNT W SLPNO T02940233

KSBN 102054Z 22008KT 10SM 31/23 A2990 RMK AO2 SLPNO T03060233 55012

KSBN 101954Z A2988 RMK AO2 SLPNO

KSBN 101854Z AUTO 10SM BKN031 31/23 A2990 RMK AO2 SLPNO T03110233

To Charter a Jet Click here.